Terminal Aerodrome Forecast
Issued by NWS Boston, MA

Home | Current Version | Previous Version | Text Only | Print | Product List | Glossary On
Versions: 1 2 3 4 5 6 7 8 9 10 11 12 13 14 15 16 17 18 19 20 21 22 23 24
000
FTUS41 KBOX 171412 AAA
TAFBDL
TAF AMD
KBDL 171412Z 1714/1818 04011KT P6SM SCT250
     FM171800 08008KT P6SM SKC
     FM180600 02004KT P6SM FEW200
     FM181600 08005KT P6SM SCT200=

USA.gov is the U.S. government's official web portal to all federal, state and local government web resources and services.